sensor_id;sensor_type;location;lat;lon;timestamp;P1;durP1;ratioP1;P2;durP2;ratioP2
64712;SDS011;51140;45.340;5.980;2023-06-14T00:00:35;5.93;;;1.85;;
64712;SDS011;51140;45.340;5.980;2023-06-14T00:03:01;5.88;;;1.83;;
64712;SDS011;51140;45.340;5.980;2023-06-14T00:05:28;7.53;;;2.00;;
64712;SDS011;51140;45.340;5.980;2023-06-14T00:07:55;5.65;;;1.83;;
64712;SDS011;51140;45.340;5.980;2023-06-14T00:10:20;5.53;;;2.15;;
64712;SDS011;51140;45.340;5.980;2023-06-14T00:12:46;8.85;;;1.70;;
64712;SDS011;51140;45.340;5.980;2023-06-14T00:15:11;5.68;;;1.80;;
64712;SDS011;51140;45.340;5.980;2023-06-14T00:17:36;8.38;;;1.90;;
64712;SDS011;51140;45.340;5.980;2023-06-14T00:20:04;4.65;;;1.55;;
64712;SDS011;51140;45.340;5.980;2023-06-14T00:22:32;6.60;;;1.80;;
64712;SDS011;51140;45.340;5.980;2023-06-14T00:24:58;9.65;;;1.98;;
64712;SDS011;51140;45.340;5.980;2023-06-14T00:27:24;6.60;;;1.65;;
64712;SDS011;51140;45.340;5.980;2023-06-14T00:29:49;6.78;;;1.75;;
64712;SDS011;51140;45.340;5.980;2023-06-14T00:32:15;5.13;;;1.63;;
64712;SDS011;51140;45.340;5.980;2023-06-14T00:34:40;4.65;;;1.80;;
64712;SDS011;51140;45.340;5.980;2023-06-14T00:37:06;7.28;;;1.67;;
64712;SDS011;51140;45.340;5.980;2023-06-14T00:39:31;8.00;;;1.83;;
64712;SDS011;51140;45.340;5.980;2023-06-14T00:41:57;4.20;;;1.80;;
64712;SDS011;51140;45.340;5.980;2023-06-14T00:44:22;4.70;;;1.65;;
64712;SDS011;51140;45.340;5.980;2023-06-14T00:46:48;4.97;;;1.65;;
64712;SDS011;51140;45.340;5.980;2023-06-14T00:49:14;6.47;;;1.98;;
64712;SDS011;51140;45.340;5.980;2023-06-14T00:51:41;5.50;;;1.65;;
64712;SDS011;51140;45.340;5.980;2023-06-14T00:54:07;4.85;;;1.80;;
64712;SDS011;51140;45.340;5.980;2023-06-14T00:56:35;5.30;;;1.58;;
64712;SDS011;51140;45.340;5.980;2023-06-14T00:59:01;5.05;;;1.80;;
64712;SDS011;51140;45.340;5.980;2023-06-14T01:01:28;7.68;;;1.90;;
64712;SDS011;51140;45.340;5.980;2023-06-14T01:03:53;4.95;;;1.60;;
64712;SDS011;51140;45.340;5.980;2023-06-14T01:06:23;5.00;;;1.67;;
64712;SDS011;51140;45.340;5.980;2023-06-14T01:14:40;6.45;;;1.60;;
64712;SDS011;51140;45.340;5.980;2023-06-14T01:17:07;5.32;;;1.50;;
64712;SDS011;51140;45.340;5.980;2023-06-14T01:19:40;6.28;;;1.83;;
64712;SDS011;51140;45.340;5.980;2023-06-14T01:22:07;7.47;;;1.67;;
64712;SDS011;51140;45.340;5.980;2023-06-14T01:24:33;5.05;;;1.83;;
64712;SDS011;51140;45.340;5.980;2023-06-14T01:27:00;6.25;;;1.55;;
64712;SDS011;51140;45.340;5.980;2023-06-14T01:29:26;4.53;;;1.60;;
64712;SDS011;51140;45.340;5.980;2023-06-14T01:31:58;8.65;;;1.67;;
64712;SDS011;51140;45.340;5.980;2023-06-14T01:34:25;6.35;;;1.70;;
64712;SDS011;51140;45.340;5.980;2023-06-14T01:36:51;7.10;;;1.90;;
64712;SDS011;51140;45.340;5.980;2023-06-14T01:39:19;6.72;;;1.60;;
64712;SDS011;51140;45.340;5.980;2023-06-14T01:41:46;7.15;;;1.80;;
64712;SDS011;51140;45.340;5.980;2023-06-14T01:44:14;5.30;;;1.40;;
64712;SDS011;51140;45.340;5.980;2023-06-14T01:46:41;6.93;;;1.42;;
64712;SDS011;51140;45.340;5.980;2023-06-14T01:49:08;5.30;;;1.40;;
64712;SDS011;51140;45.340;5.980;2023-06-14T01:51:34;6.80;;;1.35;;
64712;SDS011;51140;45.340;5.980;2023-06-14T01:54:00;5.47;;;1.55;;
64712;SDS011;51140;45.340;5.980;2023-06-14T01:56:26;7.32;;;1.83;;
64712;SDS011;51140;45.340;5.980;2023-06-14T01:58:52;5.82;;;1.65;;
64712;SDS011;51140;45.340;5.980;2023-06-14T02:01:18;6.40;;;1.75;;
64712;SDS011;51140;45.340;5.980;2023-06-14T02:03:46;5.13;;;1.52;;
64712;SDS011;51140;45.340;5.980;2023-06-14T02:06:13;4.35;;;1.58;;
64712;SDS011;51140;45.340;5.980;2023-06-14T02:08:38;6.07;;;1.67;;
64712;SDS011;51140;45.340;5.980;2023-06-14T02:11:05;8.40;;;1.90;;
64712;SDS011;51140;45.340;5.980;2023-06-14T02:13:30;7.38;;;1.50;;
64712;SDS011;51140;45.340;5.980;2023-06-14T02:15:55;6.78;;;1.60;;
64712;SDS011;51140;45.340;5.980;2023-06-14T02:18:22;5.13;;;1.48;;
64712;SDS011;51140;45.340;5.980;2023-06-14T02:20:48;4.97;;;1.50;;
64712;SDS011;51140;45.340;5.980;2023-06-14T02:23:13;3.95;;;1.52;;
64712;SDS011;51140;45.340;5.980;2023-06-14T02:25:38;8.23;;;1.83;;
64712;SDS011;51140;45.340;5.980;2023-06-14T02:28:05;8.20;;;1.80;;
64712;SDS011;51140;45.340;5.980;2023-06-14T02:30:30;7.32;;;1.70;;
64712;SDS011;51140;45.340;5.980;2023-06-14T02:32:56;4.28;;;1.80;;
64712;SDS011;51140;45.340;5.980;2023-06-14T02:35:22;4.47;;;1.85;;
64712;SDS011;51140;45.340;5.980;2023-06-14T02:37:51;6.35;;;1.83;;
64712;SDS011;51140;45.340;5.980;2023-06-14T02:40:17;6.47;;;1.77;;
64712;SDS011;51140;45.340;5.980;2023-06-14T02:42:43;6.43;;;1.60;;
64712;SDS011;51140;45.340;5.980;2023-06-14T02:45:08;7.05;;;1.73;;
64712;SDS011;51140;45.340;5.980;2023-06-14T02:47:34;5.90;;;2.05;;
64712;SDS011;51140;45.340;5.980;2023-06-14T02:49:59;7.88;;;2.20;;
64712;SDS011;51140;45.340;5.980;2023-06-14T02:52:25;5.32;;;1.70;;
64712;SDS011;51140;45.340;5.980;2023-06-14T02:54:50;4.95;;;1.65;;
64712;SDS011;51140;45.340;5.980;2023-06-14T02:57:15;6.53;;;1.58;;
64712;SDS011;51140;45.340;5.980;2023-06-14T02:59:41;9.98;;;1.58;;
64712;SDS011;51140;45.340;5.980;2023-06-14T03:02:06;5.88;;;1.90;;
64712;SDS011;51140;45.340;5.980;2023-06-14T03:04:32;7.55;;;1.80;;
64712;SDS011;51140;45.340;5.980;2023-06-14T03:07:03;7.38;;;2.35;;
64712;SDS011;51140;45.340;5.980;2023-06-14T03:09:34;5.20;;;1.90;;
64712;SDS011;51140;45.340;5.980;2023-06-14T03:12:02;5.72;;;1.90;;
64712;SDS011;51140;45.340;5.980;2023-06-14T03:14:28;7.53;;;1.95;;
64712;SDS011;51140;45.340;5.980;2023-06-14T03:16:55;6.55;;;1.83;;
64712;SDS011;51140;45.340;5.980;2023-06-14T03:19:22;6.60;;;1.85;;
64712;SDS011;51140;45.340;5.980;2023-06-14T03:21:47;9.35;;;2.20;;
64712;SDS011;51140;45.340;5.980;2023-06-14T03:24:14;6.32;;;1.92;;
64712;SDS011;51140;45.340;5.980;2023-06-14T03:26:41;5.70;;;2.10;;
64712;SDS011;51140;45.340;5.980;2023-06-14T03:29:07;6.60;;;2.30;;
64712;SDS011;51140;45.340;5.980;2023-06-14T03:31:33;6.10;;;2.25;;
64712;SDS011;51140;45.340;5.980;2023-06-14T03:34:00;6.97;;;2.00;;
64712;SDS011;51140;45.340;5.980;2023-06-14T03:36:25;5.78;;;2.10;;
64712;SDS011;51140;45.340;5.980;2023-06-14T03:38:51;5.85;;;1.80;;
64712;SDS011;51140;45.340;5.980;2023-06-14T03:41:16;10.48;;;2.00;;
64712;SDS011;51140;45.340;5.980;2023-06-14T03:43:42;10.00;;;2.00;;
64712;SDS011;51140;45.340;5.980;2023-06-14T03:46:07;7.28;;;1.80;;
64712;SDS011;51140;45.340;5.980;2023-06-14T03:48:32;5.10;;;1.83;;
64712;SDS011;51140;45.340;5.980;2023-06-14T03:50:58;5.57;;;1.92;;
64712;SDS011;51140;45.340;5.980;2023-06-14T03:53:23;7.80;;;1.90;;
64712;SDS011;51140;45.340;5.980;2023-06-14T03:55:49;6.28;;;2.00;;
64712;SDS011;51140;45.340;5.980;2023-06-14T03:58:17;7.38;;;2.13;;
64712;SDS011;51140;45.340;5.980;2023-06-14T04:00:42;4.80;;;2.20;;
64712;SDS011;51140;45.340;5.980;2023-06-14T04:03:08;6.53;;;2.17;;
64712;SDS011;51140;45.340;5.980;2023-06-14T04:05:33;6.20;;;2.30;;
64712;SDS011;51140;45.340;5.980;2023-06-14T04:07:59;11.73;;;2.42;;
64712;SDS011;51140;45.340;5.980;2023-06-14T04:10:25;7.43;;;1.90;;
64712;SDS011;51140;45.340;5.980;2023-06-14T04:12:51;5.60;;;1.88;;
64712;SDS011;51140;45.340;5.980;2023-06-14T04:15:16;7.22;;;1.88;;
64712;SDS011;51140;45.340;5.980;2023-06-14T04:17:42;6.35;;;2.20;;
64712;SDS011;51140;45.340;5.980;2023-06-14T04:20:07;7.25;;;1.75;;
64712;SDS011;51140;45.340;5.980;2023-06-14T04:22:34;5.75;;;1.90;;
64712;SDS011;51140;45.340;5.980;2023-06-14T04:25:01;3.65;;;1.77;;
64712;SDS011;51140;45.340;5.980;2023-06-14T04:27:27;5.95;;;2.00;;
64712;SDS011;51140;45.340;5.980;2023-06-14T04:29:53;7.55;;;1.90;;
64712;SDS011;51140;45.340;5.980;2023-06-14T04:32:25;4.63;;;1.73;;
64712;SDS011;51140;45.340;5.980;2023-06-14T04:34:55;6.97;;;1.70;;
64712;SDS011;51140;45.340;5.980;2023-06-14T04:37:21;10.30;;;1.95;;
64712;SDS011;51140;45.340;5.980;2023-06-14T04:39:50;7.53;;;2.10;;
64712;SDS011;51140;45.340;5.980;2023-06-14T04:42:16;4.28;;;1.70;;
64712;SDS011;51140;45.340;5.980;2023-06-14T04:44:45;8.80;;;1.80;;
64712;SDS011;51140;45.340;5.980;2023-06-14T04:47:12;5.15;;;1.95;;
64712;SDS011;51140;45.340;5.980;2023-06-14T04:49:39;6.00;;;1.98;;
64712;SDS011;51140;45.340;5.980;2023-06-14T04:52:05;4.72;;;1.70;;
64712;SDS011;51140;45.340;5.980;2023-06-14T04:54:32;14.82;;;2.42;;
64712;SDS011;51140;45.340;5.980;2023-06-14T04:56:58;6.03;;;2.08;;
64712;SDS011;51140;45.340;5.980;2023-06-14T04:59:24;4.88;;;2.13;;
64712;SDS011;51140;45.340;5.980;2023-06-14T05:01:50;4.68;;;2.00;;
64712;SDS011;51140;45.340;5.980;2023-06-14T05:04:16;6.25;;;2.10;;
64712;SDS011;51140;45.340;5.980;2023-06-14T05:06:43;8.32;;;2.35;;
64712;SDS011;51140;45.340;5.980;2023-06-14T05:09:13;6.00;;;2.63;;
64712;SDS011;51140;45.340;5.980;2023-06-14T05:11:39;7.57;;;2.22;;
64712;SDS011;51140;45.340;5.980;2023-06-14T05:14:04;4.35;;;2.00;;
64712;SDS011;51140;45.340;5.980;2023-06-14T05:16:31;7.43;;;2.20;;
64712;SDS011;51140;45.340;5.980;2023-06-14T05:18:56;7.28;;;2.30;;
64712;SDS011;51140;45.340;5.980;2023-06-14T05:21:23;7.35;;;2.17;;
64712;SDS011;51140;45.340;5.980;2023-06-14T05:23:48;8.20;;;2.10;;
64712;SDS011;51140;45.340;5.980;2023-06-14T05:26:14;5.28;;;2.70;;
64712;SDS011;51140;45.340;5.980;2023-06-14T05:28:39;9.82;;;2.17;;
64712;SDS011;51140;45.340;5.980;2023-06-14T05:31:05;12.52;;;2.42;;
64712;SDS011;51140;45.340;5.980;2023-06-14T05:33:30;9.15;;;2.65;;
64712;SDS011;51140;45.340;5.980;2023-06-14T05:35:56;9.45;;;2.92;;
64712;SDS011;51140;45.340;5.980;2023-06-14T05:38:21;5.40;;;2.50;;
64712;SDS011;51140;45.340;5.980;2023-06-14T05:40:47;7.90;;;2.80;;
64712;SDS011;51140;45.340;5.980;2023-06-14T05:43:12;8.00;;;2.92;;
64712;SDS011;51140;45.340;5.980;2023-06-14T05:45:38;7.50;;;2.80;;
64712;SDS011;51140;45.340;5.980;2023-06-14T05:48:03;7.20;;;2.90;;
64712;SDS011;51140;45.340;5.980;2023-06-14T05:50:29;7.93;;;2.67;;
64712;SDS011;51140;45.340;5.980;2023-06-14T05:52:55;9.50;;;2.50;;
64712;SDS011;51140;45.340;5.980;2023-06-14T05:55:20;6.60;;;3.05;;
64712;SDS011;51140;45.340;5.980;2023-06-14T05:57:45;6.03;;;2.58;;
64712;SDS011;51140;45.340;5.980;2023-06-14T06:00:12;10.02;;;2.80;;
64712;SDS011;51140;45.340;5.980;2023-06-14T06:02:42;8.65;;;3.10;;
64712;SDS011;51140;45.340;5.980;2023-06-14T06:05:12;6.93;;;2.85;;
64712;SDS011;51140;45.340;5.980;2023-06-14T06:07:38;7.22;;;2.90;;
64712;SDS011;51140;45.340;5.980;2023-06-14T06:10:09;8.30;;;3.05;;
64712;SDS011;51140;45.340;5.980;2023-06-14T06:12:34;9.85;;;3.13;;
64712;SDS011;51140;45.340;5.980;2023-06-14T06:15:00;9.90;;;3.47;;
64712;SDS011;51140;45.340;5.980;2023-06-14T06:17:26;8.48;;;3.55;;
64712;SDS011;51140;45.340;5.980;2023-06-14T06:19:51;8.32;;;4.15;;
64712;SDS011;51140;45.340;5.980;2023-06-14T06:22:16;8.63;;;4.40;;
64712;SDS011;51140;45.340;5.980;2023-06-14T06:24:42;8.00;;;4.15;;
64712;SDS011;51140;45.340;5.980;2023-06-14T06:27:07;7.47;;;4.10;;
64712;SDS011;51140;45.340;5.980;2023-06-14T06:29:33;6.45;;;3.13;;
64712;SDS011;51140;45.340;5.980;2023-06-14T06:31:59;7.20;;;3.13;;
64712;SDS011;51140;45.340;5.980;2023-06-14T06:34:25;8.50;;;2.75;;
64712;SDS011;51140;45.340;5.980;2023-06-14T06:36:50;6.63;;;2.75;;
64712;SDS011;51140;45.340;5.980;2023-06-14T06:39:16;9.10;;;2.92;;
64712;SDS011;51140;45.340;5.980;2023-06-14T06:41:41;6.32;;;3.10;;
64712;SDS011;51140;45.340;5.980;2023-06-14T06:44:07;7.90;;;3.10;;
64712;SDS011;51140;45.340;5.980;2023-06-14T06:46:33;8.82;;;3.38;;
64712;SDS011;51140;45.340;5.980;2023-06-14T06:48:59;6.63;;;3.20;;
64712;SDS011;51140;45.340;5.980;2023-06-14T06:51:25;5.85;;;3.08;;
64712;SDS011;51140;45.340;5.980;2023-06-14T06:53:54;8.52;;;3.53;;
64712;SDS011;51140;45.340;5.980;2023-06-14T06:56:20;6.38;;;3.08;;
64712;SDS011;51140;45.340;5.980;2023-06-14T06:58:48;6.25;;;2.72;;
64712;SDS011;51140;45.340;5.980;2023-06-14T07:01:13;8.07;;;3.40;;
64712;SDS011;51140;45.340;5.980;2023-06-14T07:03:39;8.60;;;3.65;;
64712;SDS011;51140;45.340;5.980;2023-06-14T07:06:04;7.93;;;4.15;;
64712;SDS011;51140;45.340;5.980;2023-06-14T07:08:29;8.90;;;4.38;;
64712;SDS011;51140;45.340;5.980;2023-06-14T07:10:55;10.38;;;4.10;;
64712;SDS011;51140;45.340;5.980;2023-06-14T07:13:20;6.68;;;3.47;;
64712;SDS011;51140;45.340;5.980;2023-06-14T07:15:46;9.85;;;3.85;;
64712;SDS011;51140;45.340;5.980;2023-06-14T07:18:12;7.10;;;3.53;;
64712;SDS011;51140;45.340;5.980;2023-06-14T07:20:37;8.63;;;3.35;;
64712;SDS011;51140;45.340;5.980;2023-06-14T07:23:03;6.75;;;3.90;;
64712;SDS011;51140;45.340;5.980;2023-06-14T07:25:28;8.20;;;4.32;;
64712;SDS011;51140;45.340;5.980;2023-06-14T07:27:54;8.18;;;4.22;;
64712;SDS011;51140;45.340;5.980;2023-06-14T07:30:19;7.40;;;4.50;;
64712;SDS011;51140;45.340;5.980;2023-06-14T07:32:45;8.35;;;4.78;;
64712;SDS011;51140;45.340;5.980;2023-06-14T07:35:10;8.35;;;4.35;;
64712;SDS011;51140;45.340;5.980;2023-06-14T07:37:36;6.82;;;3.75;;
64712;SDS011;51140;45.340;5.980;2023-06-14T07:40:01;8.68;;;3.30;;
64712;SDS011;51140;45.340;5.980;2023-06-14T07:42:31;5.38;;;2.88;;
64712;SDS011;51140;45.340;5.980;2023-06-14T07:44:58;7.22;;;3.55;;
64712;SDS011;51140;45.340;5.980;2023-06-14T07:47:23;5.97;;;2.78;;
64712;SDS011;51140;45.340;5.980;2023-06-14T07:49:48;6.28;;;2.97;;
64712;SDS011;51140;45.340;5.980;2023-06-14T07:52:14;7.07;;;2.90;;
64712;SDS011;51140;45.340;5.980;2023-06-14T07:54:39;6.35;;;3.10;;
64712;SDS011;51140;45.340;5.980;2023-06-14T07:57:06;6.75;;;2.92;;
64712;SDS011;51140;45.340;5.980;2023-06-14T07:59:31;7.43;;;2.63;;
64712;SDS011;51140;45.340;5.980;2023-06-14T08:01:56;6.50;;;2.97;;
64712;SDS011;51140;45.340;5.980;2023-06-14T08:04:22;5.60;;;3.13;;
64712;SDS011;51140;45.340;5.980;2023-06-14T08:06:48;9.68;;;3.28;;
64712;SDS011;51140;45.340;5.980;2023-06-14T08:09:14;6.07;;;3.28;;
64712;SDS011;51140;45.340;5.980;2023-06-14T08:11:39;6.78;;;3.08;;
64712;SDS011;51140;45.340;5.980;2023-06-14T08:14:05;7.53;;;3.58;;
64712;SDS011;51140;45.340;5.980;2023-06-14T08:16:30;8.15;;;2.95;;
64712;SDS011;51140;45.340;5.980;2023-06-14T08:18:56;5.03;;;2.90;;
64712;SDS011;51140;45.340;5.980;2023-06-14T08:21:21;6.90;;;3.25;;
64712;SDS011;51140;45.340;5.980;2023-06-14T08:23:46;5.80;;;3.40;;
64712;SDS011;51140;45.340;5.980;2023-06-14T08:26:12;6.53;;;2.75;;
64712;SDS011;51140;45.340;5.980;2023-06-14T08:28:38;5.57;;;3.20;;
64712;SDS011;51140;45.340;5.980;2023-06-14T08:31:03;5.43;;;3.15;;
64712;SDS011;51140;45.340;5.980;2023-06-14T08:33:28;5.93;;;3.00;;
64712;SDS011;51140;45.340;5.980;2023-06-14T08:35:54;5.65;;;2.80;;
64712;SDS011;51140;45.340;5.980;2023-06-14T08:38:20;5.63;;;2.80;;
64712;SDS011;51140;45.340;5.980;2023-06-14T08:40:47;5.57;;;2.92;;
64712;SDS011;51140;45.340;5.980;2023-06-14T08:43:16;5.18;;;2.55;;
64712;SDS011;51140;45.340;5.980;2023-06-14T08:45:41;5.78;;;2.40;;
64712;SDS011;51140;45.340;5.980;2023-06-14T08:48:07;6.45;;;2.45;;
64712;SDS011;51140;45.340;5.980;2023-06-14T08:50:34;4.15;;;2.30;;
64712;SDS011;51140;45.340;5.980;2023-06-14T08:53:01;7.38;;;2.60;;
64712;SDS011;51140;45.340;5.980;2023-06-14T08:55:31;5.45;;;2.40;;
64712;SDS011;51140;45.340;5.980;2023-06-14T08:57:58;3.85;;;1.80;;
64712;SDS011;51140;45.340;5.980;2023-06-14T09:00:27;5.25;;;2.10;;
64712;SDS011;51140;45.340;5.980;2023-06-14T09:02:53;5.57;;;2.33;;
64712;SDS011;51140;45.340;5.980;2023-06-14T09:05:25;5.38;;;2.50;;
64712;SDS011;51140;45.340;5.980;2023-06-14T09:07:51;6.55;;;2.35;;
64712;SDS011;51140;45.340;5.980;2023-06-14T09:10:20;5.63;;;2.80;;
64712;SDS011;51140;45.340;5.980;2023-06-14T09:12:46;8.85;;;3.00;;
64712;SDS011;51140;45.340;5.980;2023-06-14T09:15:12;4.88;;;2.47;;
64712;SDS011;51140;45.340;5.980;2023-06-14T09:17:39;4.07;;;2.30;;
64712;SDS011;51140;45.340;5.980;2023-06-14T09:20:06;5.85;;;2.50;;
64712;SDS011;51140;45.340;5.980;2023-06-14T09:22:38;6.85;;;2.60;;
64712;SDS011;51140;45.340;5.980;2023-06-14T09:25:03;5.22;;;2.33;;
64712;SDS011;51140;45.340;5.980;2023-06-14T09:27:30;5.72;;;2.70;;
64712;SDS011;51140;45.340;5.980;2023-06-14T09:29:56;5.50;;;3.00;;
64712;SDS011;51140;45.340;5.980;2023-06-14T09:32:21;5.80;;;3.10;;
64712;SDS011;51140;45.340;5.980;2023-06-14T09:34:47;6.50;;;3.17;;
64712;SDS011;51140;45.340;5.980;2023-06-14T09:37:25;6.25;;;3.00;;
64712;SDS011;51140;45.340;5.980;2023-06-14T09:39:52;7.15;;;3.28;;
64712;SDS011;51140;45.340;5.980;2023-06-14T09:42:18;7.22;;;3.00;;
64712;SDS011;51140;45.340;5.980;2023-06-14T09:44:47;7.95;;;3.13;;
64712;SDS011;51140;45.340;5.980;2023-06-14T09:47:14;7.57;;;3.25;;
64712;SDS011;51140;45.340;5.980;2023-06-14T09:49:40;6.32;;;2.97;;
64712;SDS011;51140;45.340;5.980;2023-06-14T09:52:06;6.18;;;3.17;;
64712;SDS011;51140;45.340;5.980;2023-06-14T09:54:42;6.18;;;3.05;;
64712;SDS011;51140;45.340;5.980;2023-06-14T09:57:11;6.55;;;3.20;;
64712;SDS011;51140;45.340;5.980;2023-06-14T09:59:37;7.55;;;4.13;;
64712;SDS011;51140;45.340;5.980;2023-06-14T10:02:09;10.32;;;3.28;;
64712;SDS011;51140;45.340;5.980;2023-06-14T10:04:39;6.03;;;3.28;;
64712;SDS011;51140;45.340;5.980;2023-06-14T10:07:12;6.20;;;3.65;;
64712;SDS011;51140;45.340;5.980;2023-06-14T10:09:43;7.82;;;3.45;;
64712;SDS011;51140;45.340;5.980;2023-06-14T10:12:13;6.53;;;3.83;;
64712;SDS011;51140;45.340;5.980;2023-06-14T10:14:45;6.45;;;3.83;;
64712;SDS011;51140;45.340;5.980;2023-06-14T10:17:12;8.95;;;3.80;;
64712;SDS011;51140;45.340;5.980;2023-06-14T10:19:58;7.50;;;4.00;;
64712;SDS011;51140;45.340;5.980;2023-06-14T10:22:36;8.85;;;3.90;;
64712;SDS011;51140;45.340;5.980;2023-06-14T10:25:07;6.90;;;3.97;;
64712;SDS011;51140;45.340;5.980;2023-06-14T10:27:50;8.02;;;3.95;;
64712;SDS011;51140;45.340;5.980;2023-06-14T10:30:16;7.88;;;4.30;;
64712;SDS011;51140;45.340;5.980;2023-06-14T10:35:29;6.80;;;4.50;;
64712;SDS011;51140;45.340;5.980;2023-06-14T10:37:55;7.20;;;4.10;;
64712;SDS011;51140;45.340;5.980;2023-06-14T10:40:29;6.93;;;3.88;;
64712;SDS011;51140;45.340;5.980;2023-06-14T10:42:55;8.10;;;4.00;;
64712;SDS011;51140;45.340;5.980;2023-06-14T10:45:21;6.97;;;4.15;;
64712;SDS011;51140;45.340;5.980;2023-06-14T10:47:46;8.68;;;4.30;;
64712;SDS011;51140;45.340;5.980;2023-06-14T10:50:17;6.90;;;3.78;;
64712;SDS011;51140;45.340;5.980;2023-06-14T10:52:44;7.93;;;3.70;;
64712;SDS011;51140;45.340;5.980;2023-06-14T10:55:10;10.88;;;4.03;;
64712;SDS011;51140;45.340;5.980;2023-06-14T10:57:42;7.13;;;3.72;;
64712;SDS011;51140;45.340;5.980;2023-06-14T11:00:11;7.78;;;3.83;;
64712;SDS011;51140;45.340;5.980;2023-06-14T11:02:46;8.63;;;3.88;;
64712;SDS011;51140;45.340;5.980;2023-06-14T11:05:19;7.55;;;3.92;;
64712;SDS011;51140;45.340;5.980;2023-06-14T11:12:49;6.38;;;3.83;;
64712;SDS011;51140;45.340;5.980;2023-06-14T11:15:19;7.63;;;3.50;;
64712;SDS011;51140;45.340;5.980;2023-06-14T11:17:51;9.55;;;4.32;;
64712;SDS011;51140;45.340;5.980;2023-06-14T11:20:18;8.33;;;3.80;;
64712;SDS011;51140;45.340;5.980;2023-06-14T11:22:44;7.65;;;4.30;;
64712;SDS011;51140;45.340;5.980;2023-06-14T11:25:13;8.57;;;4.13;;
64712;SDS011;51140;45.340;5.980;2023-06-14T11:27:42;7.18;;;4.03;;
64712;SDS011;51140;45.340;5.980;2023-06-14T11:30:08;7.68;;;3.92;;
64712;SDS011;51140;45.340;5.980;2023-06-14T11:32:35;6.93;;;4.00;;
64712;SDS011;51140;45.340;5.980;2023-06-14T11:35:01;9.23;;;3.92;;
64712;SDS011;51140;45.340;5.980;2023-06-14T11:37:27;8.05;;;3.85;;
64712;SDS011;51140;45.340;5.980;2023-06-14T11:39:59;8.07;;;4.00;;
64712;SDS011;51140;45.340;5.980;2023-06-14T11:42:28;7.80;;;3.60;;
64712;SDS011;51140;45.340;5.980;2023-06-14T11:44:54;9.32;;;3.60;;
64712;SDS011;51140;45.340;5.980;2023-06-14T11:47:20;10.32;;;3.90;;
64712;SDS011;51140;45.340;5.980;2023-06-14T11:49:46;6.85;;;3.90;;
64712;SDS011;51140;45.340;5.980;2023-06-14T11:52:12;7.40;;;3.92;;
64712;SDS011;51140;45.340;5.980;2023-06-14T11:54:38;8.35;;;3.88;;
64712;SDS011;51140;45.340;5.980;2023-06-14T11:57:05;7.53;;;4.05;;
64712;SDS011;51140;45.340;5.980;2023-06-14T11:59:32;8.48;;;3.97;;
64712;SDS011;51140;45.340;5.980;2023-06-14T12:02:03;7.47;;;4.18;;
64712;SDS011;51140;45.340;5.980;2023-06-14T12:04:29;6.90;;;4.00;;
64712;SDS011;51140;45.340;5.980;2023-06-14T12:06:55;7.78;;;4.15;;
64712;SDS011;51140;45.340;5.980;2023-06-14T12:09:22;7.78;;;4.13;;
64712;SDS011;51140;45.340;5.980;2023-06-14T12:11:49;6.93;;;3.78;;
64712;SDS011;51140;45.340;5.980;2023-06-14T12:14:14;6.97;;;3.70;;
64712;SDS011;51140;45.340;5.980;2023-06-14T12:16:40;8.60;;;4.15;;
64712;SDS011;51140;45.340;5.980;2023-06-14T12:19:09;9.02;;;3.95;;
64712;SDS011;51140;45.340;5.980;2023-06-14T12:21:38;8.10;;;4.05;;
64712;SDS011;51140;45.340;5.980;2023-06-14T12:24:05;7.07;;;3.95;;
64712;SDS011;51140;45.340;5.980;2023-06-14T12:26:32;8.60;;;4.07;;
64712;SDS011;51140;45.340;5.980;2023-06-14T12:28:58;8.18;;;3.60;;
64712;SDS011;51140;45.340;5.980;2023-06-14T12:31:23;7.15;;;4.15;;
64712;SDS011;51140;45.340;5.980;2023-06-14T12:33:49;7.05;;;4.22;;
64712;SDS011;51140;45.340;5.980;2023-06-14T12:36:15;8.40;;;3.92;;
64712;SDS011;51140;45.340;5.980;2023-06-14T12:38:41;8.45;;;4.05;;
64712;SDS011;51140;45.340;5.980;2023-06-14T12:41:06;7.72;;;4.00;;
64712;SDS011;51140;45.340;5.980;2023-06-14T12:43:32;9.45;;;4.30;;
64712;SDS011;51140;45.340;5.980;2023-06-14T12:45:58;8.63;;;4.20;;
64712;SDS011;51140;45.340;5.980;2023-06-14T12:48:24;7.05;;;3.88;;
64712;SDS011;51140;45.340;5.980;2023-06-14T12:50:49;8.20;;;4.10;;
64712;SDS011;51140;45.340;5.980;2023-06-14T12:53:14;7.50;;;4.20;;
64712;SDS011;51140;45.340;5.980;2023-06-14T12:55:40;6.97;;;4.22;;
64712;SDS011;51140;45.340;5.980;2023-06-14T12:58:06;9.40;;;4.40;;
64712;SDS011;51140;45.340;5.980;2023-06-14T13:00:31;8.20;;;4.55;;
64712;SDS011;51140;45.340;5.980;2023-06-14T13:02:57;7.75;;;4.15;;
64712;SDS011;51140;45.340;5.980;2023-06-14T13:05:23;7.97;;;4.35;;
64712;SDS011;51140;45.340;5.980;2023-06-14T13:07:49;7.97;;;4.20;;
64712;SDS011;51140;45.340;5.980;2023-06-14T13:10:15;6.95;;;4.03;;
64712;SDS011;51140;45.340;5.980;2023-06-14T13:12:41;10.10;;;4.50;;
64712;SDS011;51140;45.340;5.980;2023-06-14T13:15:06;7.40;;;4.30;;
64712;SDS011;51140;45.340;5.980;2023-06-14T13:17:33;7.78;;;4.18;;
64712;SDS011;51140;45.340;5.980;2023-06-14T13:20:03;7.85;;;4.25;;
64712;SDS011;51140;45.340;5.980;2023-06-14T13:22:33;8.98;;;4.75;;
64712;SDS011;51140;45.340;5.980;2023-06-14T13:24:59;8.45;;;4.63;;
64712;SDS011;51140;45.340;5.980;2023-06-14T13:27:25;8.65;;;4.57;;
64712;SDS011;51140;45.340;5.980;2023-06-14T13:29:51;8.88;;;4.53;;
64712;SDS011;51140;45.340;5.980;2023-06-14T13:32:16;8.70;;;4.05;;
64712;SDS011;51140;45.340;5.980;2023-06-14T13:34:42;8.10;;;4.20;;
64712;SDS011;51140;45.340;5.980;2023-06-14T13:37:07;7.28;;;4.03;;
64712;SDS011;51140;45.340;5.980;2023-06-14T13:39:33;8.68;;;4.80;;
64712;SDS011;51140;45.340;5.980;2023-06-14T13:41:58;10.90;;;4.50;;
64712;SDS011;51140;45.340;5.980;2023-06-14T13:44:23;8.77;;;4.45;;
64712;SDS011;51140;45.340;5.980;2023-06-14T13:46:50;8.98;;;4.20;;
64712;SDS011;51140;45.340;5.980;2023-06-14T13:49:15;7.80;;;4.15;;
64712;SDS011;51140;45.340;5.980;2023-06-14T13:51:40;8.88;;;4.00;;
64712;SDS011;51140;45.340;5.980;2023-06-14T13:54:06;8.23;;;4.10;;
64712;SDS011;51140;45.340;5.980;2023-06-14T13:56:31;8.43;;;4.22;;
64712;SDS011;51140;45.340;5.980;2023-06-14T13:58:57;7.57;;;4.05;;
64712;SDS011;51140;45.340;5.980;2023-06-14T14:01:22;7.00;;;4.18;;
64712;SDS011;51140;45.340;5.980;2023-06-14T14:03:48;8.07;;;4.20;;
64712;SDS011;51140;45.340;5.980;2023-06-14T14:06:14;11.68;;;4.30;;
64712;SDS011;51140;45.340;5.980;2023-06-14T14:08:40;7.30;;;4.07;;
64712;SDS011;51140;45.340;5.980;2023-06-14T14:11:06;9.52;;;4.80;;
64712;SDS011;51140;45.340;5.980;2023-06-14T14:13:32;8.38;;;4.88;;
64712;SDS011;51140;45.340;5.980;2023-06-14T14:15:58;9.30;;;4.00;;
64712;SDS011;51140;45.340;5.980;2023-06-14T14:18:24;6.72;;;4.15;;
64712;SDS011;51140;45.340;5.980;2023-06-14T14:20:50;8.57;;;4.60;;
64712;SDS011;51140;45.340;5.980;2023-06-14T14:23:15;11.15;;;4.38;;
64712;SDS011;51140;45.340;5.980;2023-06-14T14:25:41;7.63;;;4.30;;
64712;SDS011;51140;45.340;5.980;2023-06-14T14:28:07;10.02;;;4.65;;
64712;SDS011;51140;45.340;5.980;2023-06-14T14:30:32;11.02;;;4.60;;
64712;SDS011;51140;45.340;5.980;2023-06-14T14:32:57;9.30;;;4.40;;
64712;SDS011;51140;45.340;5.980;2023-06-14T14:35:23;8.80;;;4.50;;
64712;SDS011;51140;45.340;5.980;2023-06-14T14:37:51;9.35;;;4.40;;
64712;SDS011;51140;45.340;5.980;2023-06-14T14:40:16;11.90;;;4.90;;
64712;SDS011;51140;45.340;5.980;2023-06-14T14:42:42;8.23;;;4.22;;
64712;SDS011;51140;45.340;5.980;2023-06-14T14:45:07;7.53;;;4.50;;
64712;SDS011;51140;45.340;5.980;2023-06-14T14:47:33;8.23;;;4.03;;
64712;SDS011;51140;45.340;5.980;2023-06-14T14:49:58;9.15;;;4.50;;
64712;SDS011;51140;45.340;5.980;2023-06-14T14:52:24;8.05;;;4.40;;
64712;SDS011;51140;45.340;5.980;2023-06-14T14:54:51;8.85;;;4.30;;
64712;SDS011;51140;45.340;5.980;2023-06-14T14:57:18;8.18;;;4.40;;